sensor_id;sensor_type;location;lat;lon;timestamp;P1;durP1;ratioP1;P2;durP2;ratioP2
81229;SDS011;70701;44.452;18.652;2024-03-08T00:02:14;53.97;;;32.77;;
81229;SDS011;70701;44.452;18.652;2024-03-08T00:04:39;51.47;;;32.77;;
81229;SDS011;70701;44.452;18.652;2024-03-08T00:07:05;56.30;;;34.20;;
81229;SDS011;70701;44.452;18.652;2024-03-08T00:09:32;51.43;;;30.77;;
81229;SDS011;70701;44.452;18.652;2024-03-08T00:11:58;50.90;;;31.47;;
81229;SDS011;70701;44.452;18.652;2024-03-08T00:14:23;51.37;;;32.47;;
81229;SDS011;70701;44.452;18.652;2024-03-08T00:16:49;53.53;;;37.13;;
81229;SDS011;70701;44.452;18.652;2024-03-08T00:19:16;56.77;;;36.73;;
81229;SDS011;70701;44.452;18.652;2024-03-08T00:21:43;62.50;;;38.57;;
81229;SDS011;70701;44.452;18.652;2024-03-08T00:24:08;49.97;;;32.17;;
81229;SDS011;70701;44.452;18.652;2024-03-08T00:26:34;48.80;;;33.03;;
81229;SDS011;70701;44.452;18.652;2024-03-08T00:28:59;53.27;;;32.77;;
81229;SDS011;70701;44.452;18.652;2024-03-08T00:31:25;68.33;;;35.73;;
81229;SDS011;70701;44.452;18.652;2024-03-08T00:33:51;85.13;;;46.70;;
81229;SDS011;70701;44.452;18.652;2024-03-08T00:36:17;65.80;;;35.77;;
81229;SDS011;70701;44.452;18.652;2024-03-08T00:38:43;47.47;;;29.40;;
81229;SDS011;70701;44.452;18.652;2024-03-08T00:41:09;46.00;;;28.10;;
81229;SDS011;70701;44.452;18.652;2024-03-08T00:43:34;46.63;;;28.30;;
81229;SDS011;70701;44.452;18.652;2024-03-08T00:46:00;49.83;;;29.57;;
81229;SDS011;70701;44.452;18.652;2024-03-08T00:48:26;45.93;;;26.97;;
81229;SDS011;70701;44.452;18.652;2024-03-08T00:50:53;45.23;;;28.20;;
81229;SDS011;70701;44.452;18.652;2024-03-08T00:53:18;46.90;;;29.03;;
81229;SDS011;70701;44.452;18.652;2024-03-08T00:55:44;48.17;;;28.83;;
81229;SDS011;70701;44.452;18.652;2024-03-08T00:58:11;45.20;;;28.37;;
81229;SDS011;70701;44.452;18.652;2024-03-08T01:00:37;46.70;;;28.83;;
81229;SDS011;70701;44.452;18.652;2024-03-08T01:03:07;43.03;;;26.57;;
81229;SDS011;70701;44.452;18.652;2024-03-08T01:05:47;49.60;;;27.85;;
81229;SDS011;70701;44.452;18.652;2024-03-08T01:08:13;47.60;;;26.00;;
81229;SDS011;70701;44.452;18.652;2024-03-08T01:10:39;46.57;;;27.10;;
81229;SDS011;70701;44.452;18.652;2024-03-08T01:13:04;53.13;;;27.70;;
81229;SDS011;70701;44.452;18.652;2024-03-08T01:15:30;121.07;;;48.30;;
81229;SDS011;70701;44.452;18.652;2024-03-08T01:17:56;95.20;;;43.13;;
81229;SDS011;70701;44.452;18.652;2024-03-08T01:20:21;95.73;;;42.83;;
81229;SDS011;70701;44.452;18.652;2024-03-08T01:22:48;83.27;;;39.53;;
81229;SDS011;70701;44.452;18.652;2024-03-08T01:25:14;62.17;;;33.90;;
81229;SDS011;70701;44.452;18.652;2024-03-08T01:27:39;65.23;;;30.77;;
81229;SDS011;70701;44.452;18.652;2024-03-08T01:30:05;58.33;;;30.47;;
81229;SDS011;70701;44.452;18.652;2024-03-08T01:32:31;59.73;;;31.20;;
81229;SDS011;70701;44.452;18.652;2024-03-08T01:34:57;65.30;;;33.43;;
81229;SDS011;70701;44.452;18.652;2024-03-08T01:37:22;66.67;;;35.13;;
81229;SDS011;70701;44.452;18.652;2024-03-08T01:39:48;76.33;;;35.00;;
81229;SDS011;70701;44.452;18.652;2024-03-08T01:42:14;63.93;;;33.80;;
81229;SDS011;70701;44.452;18.652;2024-03-08T01:44:42;68.83;;;34.50;;
81229;SDS011;70701;44.452;18.652;2024-03-08T01:47:09;61.63;;;33.87;;
81229;SDS011;70701;44.452;18.652;2024-03-08T01:49:37;55.93;;;30.80;;
81229;SDS011;70701;44.452;18.652;2024-03-08T01:52:03;50.23;;;27.20;;
81229;SDS011;70701;44.452;18.652;2024-03-08T01:54:29;48.17;;;25.80;;
81229;SDS011;70701;44.452;18.652;2024-03-08T01:56:56;50.37;;;28.83;;
81229;SDS011;70701;44.452;18.652;2024-03-08T01:59:24;44.87;;;26.47;;
81229;SDS011;70701;44.452;18.652;2024-03-08T02:01:52;46.97;;;27.90;;
81229;SDS011;70701;44.452;18.652;2024-03-08T02:04:20;51.20;;;27.50;;
81229;SDS011;70701;44.452;18.652;2024-03-08T02:06:46;50.07;;;27.77;;
81229;SDS011;70701;44.452;18.652;2024-03-08T02:09:13;42.50;;;26.10;;
81229;SDS011;70701;44.452;18.652;2024-03-08T02:11:40;40.67;;;25.60;;
81229;SDS011;70701;44.452;18.652;2024-03-08T02:14:06;49.30;;;27.83;;
81229;SDS011;70701;44.452;18.652;2024-03-08T02:16:32;47.50;;;28.83;;
81229;SDS011;70701;44.452;18.652;2024-03-08T02:18:58;52.43;;;30.43;;
81229;SDS011;70701;44.452;18.652;2024-03-08T02:21:24;71.13;;;39.47;;
81229;SDS011;70701;44.452;18.652;2024-03-08T02:23:50;98.23;;;47.03;;
81229;SDS011;70701;44.452;18.652;2024-03-08T02:26:17;95.23;;;46.23;;
81229;SDS011;70701;44.452;18.652;2024-03-08T02:28:43;92.63;;;43.73;;
81229;SDS011;70701;44.452;18.652;2024-03-08T02:31:10;85.67;;;42.97;;
81229;SDS011;70701;44.452;18.652;2024-03-08T02:33:35;99.63;;;45.80;;
81229;SDS011;70701;44.452;18.652;2024-03-08T02:36:01;68.00;;;34.50;;
81229;SDS011;70701;44.452;18.652;2024-03-08T02:38:29;59.77;;;34.33;;
81229;SDS011;70701;44.452;18.652;2024-03-08T02:40:55;56.47;;;30.10;;
81229;SDS011;70701;44.452;18.652;2024-03-08T02:43:21;49.03;;;26.97;;
81229;SDS011;70701;44.452;18.652;2024-03-08T02:45:47;52.47;;;30.70;;
81229;SDS011;70701;44.452;18.652;2024-03-08T02:48:14;59.33;;;31.97;;
81229;SDS011;70701;44.452;18.652;2024-03-08T02:50:41;60.67;;;32.93;;
81229;SDS011;70701;44.452;18.652;2024-03-08T02:53:10;61.27;;;32.63;;
81229;SDS011;70701;44.452;18.652;2024-03-08T02:55:40;55.07;;;31.97;;
81229;SDS011;70701;44.452;18.652;2024-03-08T02:58:06;51.30;;;31.00;;
81229;SDS011;70701;44.452;18.652;2024-03-08T03:00:35;53.13;;;28.70;;
81229;SDS011;70701;44.452;18.652;2024-03-08T03:03:02;49.50;;;28.33;;
81229;SDS011;70701;44.452;18.652;2024-03-08T03:05:28;71.67;;;37.03;;
81229;SDS011;70701;44.452;18.652;2024-03-08T03:07:58;103.00;;;47.03;;
81229;SDS011;70701;44.452;18.652;2024-03-08T03:10:24;62.10;;;34.40;;
81229;SDS011;70701;44.452;18.652;2024-03-08T03:12:51;92.03;;;43.57;;
81229;SDS011;70701;44.452;18.652;2024-03-08T03:15:17;51.33;;;30.60;;
81229;SDS011;70701;44.452;18.652;2024-03-08T03:17:46;48.27;;;28.60;;
81229;SDS011;70701;44.452;18.652;2024-03-08T03:20:13;51.07;;;27.83;;
81229;SDS011;70701;44.452;18.652;2024-03-08T03:22:39;45.33;;;28.63;;
81229;SDS011;70701;44.452;18.652;2024-03-08T03:25:06;47.17;;;27.27;;
81229;SDS011;70701;44.452;18.652;2024-03-08T03:27:35;46.83;;;28.40;;
81229;SDS011;70701;44.452;18.652;2024-03-08T03:30:02;46.73;;;27.17;;
81229;SDS011;70701;44.452;18.652;2024-03-08T03:35:12;43.40;;;25.63;;
81229;SDS011;70701;44.452;18.652;2024-03-08T03:37:41;38.97;;;25.03;;
81229;SDS011;70701;44.452;18.652;2024-03-08T03:40:10;41.93;;;25.97;;
81229;SDS011;70701;44.452;18.652;2024-03-08T03:42:38;47.20;;;26.23;;
81229;SDS011;70701;44.452;18.652;2024-03-08T03:45:05;44.13;;;26.53;;
81229;SDS011;70701;44.452;18.652;2024-03-08T03:47:31;53.77;;;29.93;;
81229;SDS011;70701;44.452;18.652;2024-03-08T03:49:56;37.67;;;25.50;;
81229;SDS011;70701;44.452;18.652;2024-03-08T03:52:27;50.77;;;28.43;;
81229;SDS011;70701;44.452;18.652;2024-03-08T03:54:53;44.53;;;26.50;;
81229;SDS011;70701;44.452;18.652;2024-03-08T03:57:18;62.17;;;35.37;;
81229;SDS011;70701;44.452;18.652;2024-03-08T03:59:45;53.93;;;32.37;;
81229;SDS011;70701;44.452;18.652;2024-03-08T04:02:12;71.40;;;36.87;;
81229;SDS011;70701;44.452;18.652;2024-03-08T04:04:38;65.37;;;35.43;;
81229;SDS011;70701;44.452;18.652;2024-03-08T04:07:04;47.37;;;29.37;;
81229;SDS011;70701;44.452;18.652;2024-03-08T04:09:30;48.93;;;28.77;;
81229;SDS011;70701;44.452;18.652;2024-03-08T04:11:55;48.80;;;29.40;;
81229;SDS011;70701;44.452;18.652;2024-03-08T04:14:22;48.10;;;28.40;;
81229;SDS011;70701;44.452;18.652;2024-03-08T04:16:48;47.27;;;28.03;;
81229;SDS011;70701;44.452;18.652;2024-03-08T04:19:14;41.53;;;25.90;;
81229;SDS011;70701;44.452;18.652;2024-03-08T04:21:39;48.27;;;26.63;;
81229;SDS011;70701;44.452;18.652;2024-03-08T04:24:05;41.03;;;26.37;;
81229;SDS011;70701;44.452;18.652;2024-03-08T04:26:31;43.70;;;26.97;;
81229;SDS011;70701;44.452;18.652;2024-03-08T04:28:58;41.63;;;26.53;;
81229;SDS011;70701;44.452;18.652;2024-03-08T04:31:24;44.20;;;28.20;;
81229;SDS011;70701;44.452;18.652;2024-03-08T04:33:51;41.10;;;26.97;;
81229;SDS011;70701;44.452;18.652;2024-03-08T04:36:17;44.57;;;27.50;;
81229;SDS011;70701;44.452;18.652;2024-03-08T04:38:42;42.33;;;26.97;;
81229;SDS011;70701;44.452;18.652;2024-03-08T04:41:08;42.13;;;26.27;;
81229;SDS011;70701;44.452;18.652;2024-03-08T04:43:35;43.83;;;26.80;;
81229;SDS011;70701;44.452;18.652;2024-03-08T04:46:01;43.23;;;25.83;;
81229;SDS011;70701;44.452;18.652;2024-03-08T04:48:30;41.50;;;24.07;;
81229;SDS011;70701;44.452;18.652;2024-03-08T04:50:55;43.50;;;26.47;;
81229;SDS011;70701;44.452;18.652;2024-03-08T04:53:21;45.80;;;27.37;;
81229;SDS011;70701;44.452;18.652;2024-03-08T04:55:47;44.23;;;28.77;;
81229;SDS011;70701;44.452;18.652;2024-03-08T04:58:12;52.73;;;33.10;;
81229;SDS011;70701;44.452;18.652;2024-03-08T05:00:39;57.03;;;32.73;;
81229;SDS011;70701;44.452;18.652;2024-03-08T05:03:05;46.73;;;29.00;;
81229;SDS011;70701;44.452;18.652;2024-03-08T05:05:31;42.50;;;27.23;;
81229;SDS011;70701;44.452;18.652;2024-03-08T05:07:56;41.37;;;25.43;;
81229;SDS011;70701;44.452;18.652;2024-03-08T05:10:22;40.33;;;24.97;;
81229;SDS011;70701;44.452;18.652;2024-03-08T05:12:47;37.70;;;22.07;;
81229;SDS011;70701;44.452;18.652;2024-03-08T05:15:13;40.83;;;26.03;;
81229;SDS011;70701;44.452;18.652;2024-03-08T05:17:39;40.10;;;23.17;;
81229;SDS011;70701;44.452;18.652;2024-03-08T05:20:08;40.37;;;24.70;;
81229;SDS011;70701;44.452;18.652;2024-03-08T05:22:37;49.10;;;28.47;;
81229;SDS011;70701;44.452;18.652;2024-03-08T05:25:03;44.97;;;25.90;;
81229;SDS011;70701;44.452;18.652;2024-03-08T05:27:29;51.10;;;31.50;;
81229;SDS011;70701;44.452;18.652;2024-03-08T05:29:55;56.90;;;32.80;;
81229;SDS011;70701;44.452;18.652;2024-03-08T05:32:20;76.57;;;38.17;;
81229;SDS011;70701;44.452;18.652;2024-03-08T05:34:46;55.43;;;31.10;;
81229;SDS011;70701;44.452;18.652;2024-03-08T05:37:12;46.83;;;26.60;;
81229;SDS011;70701;44.452;18.652;2024-03-08T05:39:37;38.90;;;25.73;;
81229;SDS011;70701;44.452;18.652;2024-03-08T05:42:03;43.67;;;24.93;;
81229;SDS011;70701;44.452;18.652;2024-03-08T05:44:33;52.43;;;31.20;;
81229;SDS011;70701;44.452;18.652;2024-03-08T05:46:59;57.83;;;32.83;;
81229;SDS011;70701;44.452;18.652;2024-03-08T05:49:24;51.83;;;30.87;;
81229;SDS011;70701;44.452;18.652;2024-03-08T05:51:50;47.80;;;27.87;;
81229;SDS011;70701;44.452;18.652;2024-03-08T05:54:16;40.43;;;25.70;;
81229;SDS011;70701;44.452;18.652;2024-03-08T05:56:42;40.37;;;25.93;;
81229;SDS011;70701;44.452;18.652;2024-03-08T05:59:09;43.10;;;27.00;;
81229;SDS011;70701;44.452;18.652;2024-03-08T06:01:35;38.47;;;26.27;;
81229;SDS011;70701;44.452;18.652;2024-03-08T06:04:02;39.20;;;23.83;;
81229;SDS011;70701;44.452;18.652;2024-03-08T06:06:29;42.17;;;25.60;;
81229;SDS011;70701;44.452;18.652;2024-03-08T06:08:55;40.17;;;25.20;;
81229;SDS011;70701;44.452;18.652;2024-03-08T06:11:24;37.70;;;25.10;;
81229;SDS011;70701;44.452;18.652;2024-03-08T06:13:52;41.23;;;25.63;;
81229;SDS011;70701;44.452;18.652;2024-03-08T06:16:25;40.47;;;25.27;;
81229;SDS011;70701;44.452;18.652;2024-03-08T06:18:55;42.17;;;26.70;;
81229;SDS011;70701;44.452;18.652;2024-03-08T06:21:23;41.77;;;25.87;;
81229;SDS011;70701;44.452;18.652;2024-03-08T06:23:52;39.53;;;24.13;;
81229;SDS011;70701;44.452;18.652;2024-03-08T06:26:20;40.80;;;25.67;;
81229;SDS011;70701;44.452;18.652;2024-03-08T06:28:47;41.90;;;26.67;;
81229;SDS011;70701;44.452;18.652;2024-03-08T06:31:13;44.23;;;27.67;;
81229;SDS011;70701;44.452;18.652;2024-03-08T06:33:40;66.90;;;37.13;;
81229;SDS011;70701;44.452;18.652;2024-03-08T06:36:05;64.77;;;34.17;;
81229;SDS011;70701;44.452;18.652;2024-03-08T06:38:31;67.37;;;35.97;;
81229;SDS011;70701;44.452;18.652;2024-03-08T06:40:57;57.00;;;32.57;;
81229;SDS011;70701;44.452;18.652;2024-03-08T06:43:23;52.73;;;31.33;;
81229;SDS011;70701;44.452;18.652;2024-03-08T06:45:55;60.37;;;36.93;;
81229;SDS011;70701;44.452;18.652;2024-03-08T06:48:22;61.33;;;34.77;;
81229;SDS011;70701;44.452;18.652;2024-03-08T06:50:48;58.27;;;35.17;;
81229;SDS011;70701;44.452;18.652;2024-03-08T06:53:14;56.17;;;33.73;;
81229;SDS011;70701;44.452;18.652;2024-03-08T06:55:39;59.43;;;36.30;;
81229;SDS011;70701;44.452;18.652;2024-03-08T06:58:05;62.03;;;36.80;;
81229;SDS011;70701;44.452;18.652;2024-03-08T07:00:32;55.40;;;32.23;;
81229;SDS011;70701;44.452;18.652;2024-03-08T07:02:58;64.53;;;36.80;;
81229;SDS011;70701;44.452;18.652;2024-03-08T07:05:30;60.37;;;32.03;;
81229;SDS011;70701;44.452;18.652;2024-03-08T07:07:56;54.00;;;29.60;;
81229;SDS011;70701;44.452;18.652;2024-03-08T07:10:22;56.67;;;32.10;;
81229;SDS011;70701;44.452;18.652;2024-03-08T07:12:51;58.07;;;33.87;;
81229;SDS011;70701;44.452;18.652;2024-03-08T07:15:21;63.00;;;34.97;;
81229;SDS011;70701;44.452;18.652;2024-03-08T07:17:48;56.97;;;30.83;;
81229;SDS011;70701;44.452;18.652;2024-03-08T07:20:14;53.80;;;31.40;;
81229;SDS011;70701;44.452;18.652;2024-03-08T07:22:47;71.20;;;34.30;;
81229;SDS011;70701;44.452;18.652;2024-03-08T07:25:13;67.57;;;33.97;;
81229;SDS011;70701;44.452;18.652;2024-03-08T07:27:50;69.63;;;34.37;;
81229;SDS011;70701;44.452;18.652;2024-03-08T07:33:07;69.33;;;32.57;;
81229;SDS011;70701;44.452;18.652;2024-03-08T07:35:41;78.70;;;40.23;;
81229;SDS011;70701;44.452;18.652;2024-03-08T07:38:08;82.70;;;38.87;;
81229;SDS011;70701;44.452;18.652;2024-03-08T07:40:35;79.67;;;41.00;;
81229;SDS011;70701;44.452;18.652;2024-03-08T07:43:03;74.37;;;34.50;;
81229;SDS011;70701;44.452;18.652;2024-03-08T07:45:29;78.00;;;38.17;;
81229;SDS011;70701;44.452;18.652;2024-03-08T07:47:55;80.83;;;36.63;;
81229;SDS011;70701;44.452;18.652;2024-03-08T07:50:21;77.43;;;38.47;;
81229;SDS011;70701;44.452;18.652;2024-03-08T07:52:48;75.77;;;39.60;;
81229;SDS011;70701;44.452;18.652;2024-03-08T07:55:15;78.63;;;41.13;;
81229;SDS011;70701;44.452;18.652;2024-03-08T07:57:40;74.53;;;38.20;;
81229;SDS011;70701;44.452;18.652;2024-03-08T08:00:07;75.47;;;35.03;;
81229;SDS011;70701;44.452;18.652;2024-03-08T08:02:34;73.50;;;37.27;;
81229;SDS011;70701;44.452;18.652;2024-03-08T08:05:01;71.93;;;37.13;;
81229;SDS011;70701;44.452;18.652;2024-03-08T08:07:27;75.00;;;36.90;;
81229;SDS011;70701;44.452;18.652;2024-03-08T08:09:53;73.50;;;36.37;;
81229;SDS011;70701;44.452;18.652;2024-03-08T08:12:18;55.50;;;28.27;;
81229;SDS011;70701;44.452;18.652;2024-03-08T08:14:44;52.90;;;26.23;;
81229;SDS011;70701;44.452;18.652;2024-03-08T08:17:10;56.03;;;28.07;;
81229;SDS011;70701;44.452;18.652;2024-03-08T08:19:37;46.77;;;25.43;;
81229;SDS011;70701;44.452;18.652;2024-03-08T08:22:03;43.37;;;24.93;;
81229;SDS011;70701;44.452;18.652;2024-03-08T08:24:29;47.47;;;24.73;;
81229;SDS011;70701;44.452;18.652;2024-03-08T08:26:55;53.73;;;29.43;;
81229;SDS011;70701;44.452;18.652;2024-03-08T08:29:22;43.37;;;25.57;;
81229;SDS011;70701;44.452;18.652;2024-03-08T08:31:48;37.50;;;23.93;;
81229;SDS011;70701;44.452;18.652;2024-03-08T08:34:15;39.17;;;23.97;;
81229;SDS011;70701;44.452;18.652;2024-03-08T08:36:44;32.73;;;19.37;;
81229;SDS011;70701;44.452;18.652;2024-03-08T08:39:10;32.43;;;20.07;;
81229;SDS011;70701;44.452;18.652;2024-03-08T08:41:39;38.73;;;22.00;;
81229;SDS011;70701;44.452;18.652;2024-03-08T08:44:07;36.17;;;21.57;;
81229;SDS011;70701;44.452;18.652;2024-03-08T08:46:38;35.37;;;21.73;;
81229;SDS011;70701;44.452;18.652;2024-03-08T08:49:04;44.60;;;24.23;;
81229;SDS011;70701;44.452;18.652;2024-03-08T08:51:31;41.53;;;22.30;;
81229;SDS011;70701;44.452;18.652;2024-03-08T08:53:59;34.90;;;21.00;;
81229;SDS011;70701;44.452;18.652;2024-03-08T08:56:24;29.67;;;18.53;;
81229;SDS011;70701;44.452;18.652;2024-03-08T08:58:51;27.97;;;18.07;;
81229;SDS011;70701;44.452;18.652;2024-03-08T09:01:20;25.57;;;16.73;;
81229;SDS011;70701;44.452;18.652;2024-03-08T09:03:46;33.73;;;20.37;;
81229;SDS011;70701;44.452;18.652;2024-03-08T09:06:12;29.43;;;19.77;;
81229;SDS011;70701;44.452;18.652;2024-03-08T09:08:38;23.97;;;16.33;;
81229;SDS011;70701;44.452;18.652;2024-03-08T09:11:04;34.27;;;21.07;;
81229;SDS011;70701;44.452;18.652;2024-03-08T09:13:30;40.27;;;24.17;;
81229;SDS011;70701;44.452;18.652;2024-03-08T09:15:56;29.93;;;19.50;;
81229;SDS011;70701;44.452;18.652;2024-03-08T09:18:22;26.93;;;17.03;;
81229;SDS011;70701;44.452;18.652;2024-03-08T09:20:49;27.97;;;17.10;;
81229;SDS011;70701;44.452;18.652;2024-03-08T09:23:15;24.37;;;16.40;;
81229;SDS011;70701;44.452;18.652;2024-03-08T09:25:42;26.77;;;16.77;;
81229;SDS011;70701;44.452;18.652;2024-03-08T09:28:08;24.43;;;16.07;;
81229;SDS011;70701;44.452;18.652;2024-03-08T09:30:37;25.77;;;15.97;;
81229;SDS011;70701;44.452;18.652;2024-03-08T09:33:03;22.77;;;15.43;;
81229;SDS011;70701;44.452;18.652;2024-03-08T09:35:29;22.77;;;15.30;;
81229;SDS011;70701;44.452;18.652;2024-03-08T09:37:55;24.97;;;16.80;;
81229;SDS011;70701;44.452;18.652;2024-03-08T09:40:21;22.63;;;16.77;;
81229;SDS011;70701;44.452;18.652;2024-03-08T09:42:49;23.40;;;15.77;;
81229;SDS011;70701;44.452;18.652;2024-03-08T09:45:19;25.57;;;17.80;;
81229;SDS011;70701;44.452;18.652;2024-03-08T09:47:50;24.23;;;16.70;;
81229;SDS011;70701;44.452;18.652;2024-03-08T09:50:16;26.87;;;18.17;;
81229;SDS011;70701;44.452;18.652;2024-03-08T09:52:46;25.70;;;18.07;;
81229;SDS011;70701;44.452;18.652;2024-03-08T09:55:14;24.40;;;16.70;;
81229;SDS011;70701;44.452;18.652;2024-03-08T09:57:43;25.23;;;17.93;;
81229;SDS011;70701;44.452;18.652;2024-03-08T10:00:27;27.77;;;18.93;;
81229;SDS011;70701;44.452;18.652;2024-03-08T10:02:53;26.53;;;17.13;;
81229;SDS011;70701;44.452;18.652;2024-03-08T10:05:19;25.23;;;16.17;;
81229;SDS011;70701;44.452;18.652;2024-03-08T10:07:47;23.60;;;16.13;;
81229;SDS011;70701;44.452;18.652;2024-03-08T10:10:12;24.83;;;17.47;;
81229;SDS011;70701;44.452;18.652;2024-03-08T10:12:38;24.60;;;17.13;;
81229;SDS011;70701;44.452;18.652;2024-03-08T10:15:07;25.80;;;17.53;;
81229;SDS011;70701;44.452;18.652;2024-03-08T10:17:34;21.23;;;14.93;;
81229;SDS011;70701;44.452;18.652;2024-03-08T10:20:01;26.10;;;15.70;;
81229;SDS011;70701;44.452;18.652;2024-03-08T10:22:29;27.47;;;17.10;;
81229;SDS011;70701;44.452;18.652;2024-03-08T10:24:55;23.47;;;16.13;;
81229;SDS011;70701;44.452;18.652;2024-03-08T10:27:20;19.83;;;14.67;;
81229;SDS011;70701;44.452;18.652;2024-03-08T10:29:49;23.53;;;15.07;;
81229;SDS011;70701;44.452;18.652;2024-03-08T10:32:17;25.27;;;17.60;;
81229;SDS011;70701;44.452;18.652;2024-03-08T10:34:42;24.77;;;16.27;;
81229;SDS011;70701;44.452;18.652;2024-03-08T10:37:12;24.60;;;16.37;;
81229;SDS011;70701;44.452;18.652;2024-03-08T10:39:44;22.80;;;15.90;;
81229;SDS011;70701;44.452;18.652;2024-03-08T10:42:18;23.80;;;15.90;;
81229;SDS011;70701;44.452;18.652;2024-03-08T10:45:02;30.10;;;19.97;;
81229;SDS011;70701;44.452;18.652;2024-03-08T10:47:38;26.10;;;17.80;;
81229;SDS011;70701;44.452;18.652;2024-03-08T10:50:11;22.10;;;15.00;;
81229;SDS011;70701;44.452;18.652;2024-03-08T10:52:48;25.47;;;14.87;;
81229;SDS011;70701;44.452;18.652;2024-03-08T10:55:16;21.95;;;15.02;;
81229;SDS011;70701;44.452;18.652;2024-03-08T10:57:43;24.30;;;16.75;;
81229;SDS011;70701;44.452;18.652;2024-03-08T11:00:09;26.65;;;17.20;;
81229;SDS011;70701;44.452;18.652;2024-03-08T11:02:37;28.42;;;16.65;;
81229;SDS011;70701;44.452;18.652;2024-03-08T11:05:03;23.25;;;15.45;;
81229;SDS011;70701;44.452;18.652;2024-03-08T11:07:33;24.15;;;16.95;;
81229;SDS011;70701;44.452;18.652;2024-03-08T11:10:03;22.48;;;15.60;;
81229;SDS011;70701;44.452;18.652;2024-03-08T11:12:36;21.85;;;15.38;;
81229;SDS011;70701;44.452;18.652;2024-03-08T11:15:09;27.25;;;18.10;;
81229;SDS011;70701;44.452;18.652;2024-03-08T11:20:14;31.05;;;18.20;;
81229;SDS011;70701;44.452;18.652;2024-03-08T11:22:52;35.83;;;19.80;;
81229;SDS011;70701;44.452;18.652;2024-03-08T11:25:40;25.20;;;16.75;;
81229;SDS011;70701;44.452;18.652;2024-03-08T11:30:43;22.88;;;13.98;;
81229;SDS011;70701;44.452;18.652;2024-03-08T11:33:29;22.45;;;14.98;;
81229;SDS011;70701;44.452;18.652;2024-03-08T11:38:43;25.23;;;15.73;;
81229;SDS011;70701;44.452;18.652;2024-03-08T11:41:32;23.52;;;16.30;;
81229;SDS011;70701;44.452;18.652;2024-03-08T11:44:06;24.45;;;15.52;;
81229;SDS011;70701;44.452;18.652;2024-03-08T11:46:34;23.33;;;15.25;;
81229;SDS011;70701;44.452;18.652;2024-03-08T11:49:00;22.50;;;15.02;;
81229;SDS011;70701;44.452;18.652;2024-03-08T11:51:26;22.08;;;15.77;;
81229;SDS011;70701;44.452;18.652;2024-03-08T11:53:52;22.20;;;15.07;;
81229;SDS011;70701;44.452;18.652;2024-03-08T11:56:18;24.80;;;15.68;;
81229;SDS011;70701;44.452;18.652;2024-03-08T11:58:54;21.60;;;14.80;;
81229;SDS011;70701;44.452;18.652;2024-03-08T12:01:24;23.02;;;14.50;;
81229;SDS011;70701;44.452;18.652;2024-03-08T12:03:53;22.35;;;15.00;;
81229;SDS011;70701;44.452;18.652;2024-03-08T12:06:20;24.33;;;15.77;;
81229;SDS011;70701;44.452;18.652;2024-03-08T12:08:46;19.27;;;13.77;;
81229;SDS011;70701;44.452;18.652;2024-03-08T12:11:14;21.95;;;15.65;;
81229;SDS011;70701;44.452;18.652;2024-03-08T12:13:40;21.15;;;13.18;;
81229;SDS011;70701;44.452;18.652;2024-03-08T12:16:07;18.50;;;13.27;;
81229;SDS011;70701;44.452;18.652;2024-03-08T12:18:36;17.85;;;13.50;;
81229;SDS011;70701;44.452;18.652;2024-03-08T12:21:06;18.50;;;12.35;;
81229;SDS011;70701;44.452;18.652;2024-03-08T12:23:33;18.90;;;13.32;;
81229;SDS011;70701;44.452;18.652;2024-03-08T12:26:09;20.45;;;13.50;;
81229;SDS011;70701;44.452;18.652;2024-03-08T12:28:38;21.55;;;14.27;;
81229;SDS011;70701;44.452;18.652;2024-03-08T12:31:06;19.48;;;14.18;;
81229;SDS011;70701;44.452;18.652;2024-03-08T12:33:52;18.65;;;13.90;;
81229;SDS011;70701;44.452;18.652;2024-03-08T12:36:19;19.52;;;12.30;;
81229;SDS011;70701;44.452;18.652;2024-03-08T12:38:45;18.75;;;14.45;;
81229;SDS011;70701;44.452;18.652;2024-03-08T12:41:14;22.63;;;14.95;;
81229;SDS011;70701;44.452;18.652;2024-03-08T12:43:41;24.27;;;14.77;;
81229;SDS011;70701;44.452;18.652;2024-03-08T12:46:11;28.58;;;17.70;;
81229;SDS011;70701;44.452;18.652;2024-03-08T12:48:37;21.77;;;16.17;;
81229;SDS011;70701;44.452;18.652;2024-03-08T12:51:06;25.30;;;15.52;;
81229;SDS011;70701;44.452;18.652;2024-03-08T12:53:32;21.88;;;14.18;;
81229;SDS011;70701;44.452;18.652;2024-03-08T12:55:58;20.60;;;12.25;;
81229;SDS011;70701;44.452;18.652;2024-03-08T12:58:24;21.15;;;13.70;;
81229;SDS011;70701;44.452;18.652;2024-03-08T13:00:51;20.70;;;14.30;;
81229;SDS011;70701;44.452;18.652;2024-03-08T13:03:17;18.83;;;12.95;;
81229;SDS011;70701;44.452;18.652;2024-03-08T13:05:43;20.20;;;12.80;;
81229;SDS011;70701;44.452;18.652;2024-03-08T13:08:09;16.85;;;11.95;;
81229;SDS011;70701;44.452;18.652;2024-03-08T13:10:39;18.60;;;12.98;;
81229;SDS011;70701;44.452;18.652;2024-03-08T13:13:05;23.42;;;16.42;;
81229;SDS011;70701;44.452;18.652;2024-03-08T13:15:30;23.02;;;15.07;;
81229;SDS011;70701;44.452;18.652;2024-03-08T13:17:58;24.33;;;16.20;;
81229;SDS011;70701;44.452;18.652;2024-03-08T13:20:25;22.38;;;13.68;;
81229;SDS011;70701;44.452;18.652;2024-03-08T13:22:54;17.60;;;12.48;;
81229;SDS011;70701;44.452;18.652;2024-03-08T13:25:20;19.48;;;12.70;;
81229;SDS011;70701;44.452;18.652;2024-03-08T13:27:46;23.10;;;14.75;;
81229;SDS011;70701;44.452;18.652;2024-03-08T13:30:12;25.40;;;17.02;;
81229;SDS011;70701;44.452;18.652;2024-03-08T13:32:44;21.83;;;14.45;;
81229;SDS011;70701;44.452;18.652;2024-03-08T13:35:12;24.40;;;15.07;;
81229;SDS011;70701;44.452;18.652;2024-03-08T13:37:41;30.58;;;19.67;;
81229;SDS011;70701;44.452;18.652;2024-03-08T13:40:09;37.22;;;22.70;;
81229;SDS011;70701;44.452;18.652;2024-03-08T13:42:42;37.00;;;24.48;;
81229;SDS011;70701;44.452;18.652;2024-03-08T13:45:08;36.13;;;20.92;;
81229;SDS011;70701;44.452;18.652;2024-03-08T13:47:36;27.73;;;17.73;;
81229;SDS011;70701;44.452;18.652;2024-03-08T13:50:02;26.35;;;14.68;;
81229;SDS011;70701;44.452;18.652;2024-03-08T13:52:29;22.08;;;14.82;;
81229;SDS011;70701;44.452;18.652;2024-03-08T13:54:55;20.33;;;14.35;;
81229;SDS011;70701;44.452;18.652;2024-03-08T13:57:21;21.00;;;13.10;;
81229;SDS011;70701;44.452;18.652;2024-03-08T13:59:47;17.27;;;10.98;;
81229;SDS011;70701;44.452;18.652;2024-03-08T14:02:16;15.25;;;10.63;;
81229;SDS011;70701;44.452;18.652;2024-03-08T14:04:42;20.15;;;12.30;;
81229;SDS011;70701;44.452;18.652;2024-03-08T14:07:08;20.52;;;13.57;;
81229;SDS011;70701;44.452;18.652;2024-03-08T14:09:34;24.83;;;15.27;;
81229;SDS011;70701;44.452;18.652;2024-03-08T14:12:07;21.33;;;13.95;;
81229;SDS011;70701;44.452;18.652;2024-03-08T14:14:33;26.48;;;14.70;;
81229;SDS011;70701;44.452;18.652;2024-03-08T14:17:02;20.50;;;12.77;;
81229;SDS011;70701;44.452;18.652;2024-03-08T14:19:29;18.45;;;12.10;;
81229;SDS011;70701;44.452;18.652;2024-03-08T14:21:59;18.35;;;11.40;;
81229;SDS011;70701;44.452;18.652;2024-03-08T14:24:25;15.70;;;10.90;;